Time;durP1;ratioP1;P1;durP2;ratioP2;P2;SDS_P1;SDS_P2;PMS_P1;PMS_P2;Temp;Humidity;BMP_temperature;BMP_pressure;BME280_temperature;BME280_humidity;BME280_pressure;Samples;Min_cycle;Max_cycle;Signal;HPM_P1;HPM_P2
2023/06/04 00:01:05;;;;;;;;;;;11.60;97.50;;;;;;5108704;28;19928;-75
2023/06/04 00:03:32;;;;;;;;;;;11.60;97.90;;;;;;5075236;28;20434;-75
2023/06/04 00:05:58;;;;;;;;;;;11.50;96.80;;;;;;5074625;28;19929;-76
2023/06/04 00:08:23;;;;;;;;;;;11.60;98.20;;;;;;5107529;28;19939;-76
2023/06/04 00:10:49;;;;;;;;;;;11.50;98.10;;;;;;5057205;28;19928;-76
2023/06/04 00:13:15;;;;;;;;;;;11.50;99.90;;;;;;5074658;28;19931;-75
2023/06/04 00:15:41;;;;;;;;;;;11.50;99.40;;;;;;5058880;28;20349;-76
2023/06/04 00:18:06;;;;;;;;;;;11.40;99.90;;;;;;5079683;28;19925;-75
2023/06/04 00:20:32;;;;;;;;;;;11.40;99.60;;;;;;5118550;27;19949;-75
2023/06/04 00:22:58;;;;;;;;;;;11.40;99.80;;;;;;5087707;28;19928;-75
2023/06/04 00:25:23;;;;;;;;;;;11.30;99.90;;;;;;5100477;28;19954;-76
2023/06/04 00:27:49;;;;;;;;;;;11.30;99.90;;;;;;5116435;27;19930;-76
2023/06/04 00:30:15;;;;;;;;;;;11.30;99.90;;;;;;5079553;28;19974;-76
2023/06/04 00:32:40;;;;;;;;;;;11.20;99.90;;;;;;5100734;28;20013;-76
2023/06/04 00:35:06;;;;;;;;;;;11.20;99.90;;;;;;5081091;28;20011;-75
2023/06/04 00:37:32;;;;;;;;;;;11.20;99.90;;;;;;5078136;28;19945;-76
2023/06/04 00:39:58;;;;;;;;;;;11.20;99.90;;;;;;5085050;28;19934;-76
2023/06/04 00:42:24;;;;;;;;;;;11.20;99.90;;;;;;5092345;28;19939;-75
2023/06/04 00:44:50;;;;;;;;;;;11.10;99.90;;;;;;5059285;28;20440;-75
2023/06/04 00:47:16;;;;;;;;;;;11.10;99.90;;;;;;5060220;28;19936;-76
2023/06/04 00:49:42;;;;;;;;;;;11.00;99.90;;;;;;5070904;28;19932;-75
2023/06/04 00:52:08;;;;;;;;;;;11.00;99.90;;;;;;5060583;28;19935;-76
2023/06/04 00:54:34;;;;;;;;;;;11.00;99.90;;;;;;5074880;28;19939;-76
2023/06/04 00:57:00;;;;;;;;;;;10.90;99.90;;;;;;5075205;28;19932;-76
2023/06/04 00:59:26;;;;;;;;;;;10.90;99.90;;;;;;5074512;28;19935;-75
2023/06/04 01:01:58;;;;;;;;;;;10.90;99.90;;;;;;5106275;28;20479;-75
2023/06/04 01:04:27;;;;;;;;;;;10.90;99.90;;;;;;5074030;28;19932;-75
2023/06/04 01:06:56;;;;;;;;;;;10.80;99.90;;;;;;5088387;28;19931;-75
2023/06/04 01:09:21;;;;;;;;;;;10.80;99.90;;;;;;5073754;28;20368;-75
2023/06/04 01:11:47;;;;;;;;;;;10.80;99.90;;;;;;5058695;28;19996;-75
2023/06/04 01:14:13;;;;;;;;;;;10.80;99.90;;;;;;5093536;28;19943;-76
2023/06/04 01:16:48;;;;;;;;;;;10.70;99.90;;;;;;5058765;28;20297;-75
2023/06/04 01:19:21;;;;;;;;;;;10.80;99.90;;;;;;5104290;28;19932;-75
2023/06/04 01:21:48;;;;;;;;;;;10.70;99.90;;;;;;5105813;28;20030;-75
2023/06/04 01:24:15;;;;;;;;;;;10.80;99.90;;;;;;5074633;28;19924;-75
2023/06/04 01:26:41;;;;;;;;;;;10.70;99.90;;;;;;5074068;28;19975;-75
2023/06/04 01:29:09;;;;;;;;;;;10.80;99.90;;;;;;5073237;28;19937;-75
2023/06/04 01:31:35;;;;;;;;;;;10.70;99.90;;;;;;5059336;28;19991;-75
2023/06/04 01:34:01;;;;;;;;;;;10.70;99.90;;;;;;5114403;28;20477;-75
2023/06/04 01:36:27;;;;;;;;;;;10.60;99.90;;;;;;5081819;28;19940;-75
2023/06/04 01:38:52;;;;;;;;;;;10.60;99.90;;;;;;5073288;28;19987;-75
2023/06/04 01:41:18;;;;;;;;;;;10.60;99.90;;;;;;5057852;28;19928;-76
2023/06/04 01:43:44;;;;;;;;;;;10.50;99.90;;;;;;5073954;28;19924;-75
2023/06/04 01:46:09;;;;;;;;;;;10.50;99.90;;;;;;5105550;28;19931;-75
2023/06/04 01:48:36;;;;;;;;;;;10.40;99.90;;;;;;5058784;28;19924;-75
2023/06/04 01:51:02;;;;;;;;;;;10.40;99.90;;;;;;5073723;28;20721;-75
2023/06/04 01:53:27;;;;;;;;;;;10.40;99.90;;;;;;5108149;28;19925;-75
2023/06/04 01:55:54;;;;;;;;;;;10.40;99.90;;;;;;5073943;28;20365;-75
2023/06/04 01:58:26;;;;;;;;;;;10.40;99.90;;;;;;5072212;28;20307;-76
2023/06/04 02:00:55;;;;;;;;;;;10.40;99.90;;;;;;5072696;28;19924;-75
2023/06/04 02:03:22;;;;;;;;;;;10.40;99.90;;;;;;5071256;28;20006;-76
2023/06/04 02:05:48;;;;;;;;;;;10.30;99.90;;;;;;5074835;28;19924;-75
2023/06/04 02:08:18;;;;;;;;;;;10.30;99.90;;;;;;5074157;28;19971;-75
2023/06/04 02:10:48;;;;;;;;;;;10.20;99.90;;;;;;5071181;28;19924;-75
2023/06/04 02:13:14;;;;;;;;;;;10.20;99.90;;;;;;5105926;28;19928;-75
2023/06/04 02:15:40;;;;;;;;;;;10.20;99.90;;;;;;5072693;28;19976;-76
2023/06/04 02:18:15;;;;;;;;;;;10.20;99.90;;;;;;5073727;28;19932;-75
2023/06/04 02:20:41;;;;;;;;;;;10.20;99.90;;;;;;5109057;28;20015;-75
2023/06/04 02:23:07;;;;;;;;;;;10.20;99.90;;;;;;5075635;28;19983;-75
2023/06/04 02:25:32;;;;;;;;;;;10.20;99.90;;;;;;5114109;28;19923;-76
2023/06/04 02:27:58;;;;;;;;;;;10.20;99.90;;;;;;5076023;28;19935;-76
2023/06/04 02:30:23;;;;;;;;;;;10.20;99.90;;;;;;5079349;28;19928;-75
2023/06/04 02:32:50;;;;;;;;;;;10.10;99.90;;;;;;5109089;27;20461;-75
2023/06/04 02:35:17;;;;;;;;;;;10.10;99.90;;;;;;5058339;28;20473;-75
2023/06/04 02:37:43;;;;;;;;;;;10.10;99.90;;;;;;5084774;28;19924;-75
2023/06/04 02:40:09;;;;;;;;;;;10.10;99.90;;;;;;5079804;28;19939;-76
2023/06/04 02:42:35;;;;;;;;;;;10.00;99.90;;;;;;5083553;28;20014;-75
2023/06/04 02:45:00;;;;;;;;;;;10.00;99.90;;;;;;5071457;28;19924;-76
2023/06/04 02:47:27;;;;;;;;;;;10.00;99.90;;;;;;5085689;28;19930;-75
2023/06/04 02:49:52;;;;;;;;;;;10.00;99.90;;;;;;5123916;27;19973;-75
2023/06/04 02:52:18;;;;;;;;;;;10.00;99.90;;;;;;5084524;28;19924;-76
2023/06/04 02:54:43;;;;;;;;;;;10.00;99.90;;;;;;5079814;28;19939;-76
2023/06/04 02:57:09;;;;;;;;;;;9.90;99.90;;;;;;5112532;28;19946;-75
2023/06/04 02:59:36;;;;;;;;;;;10.00;99.90;;;;;;5088848;28;19939;-75
2023/06/04 03:02:02;;;;;;;;;;;9.90;99.90;;;;;;5051942;28;19960;-75
2023/06/04 03:04:34;;;;;;;;;;;9.90;99.90;;;;;;5119948;27;19964;-75
2023/06/04 03:07:01;;;;;;;;;;;9.90;99.90;;;;;;5077536;28;19932;-76
2023/06/04 03:09:26;;;;;;;;;;;9.90;99.90;;;;;;5060595;28;19959;-76
2023/06/04 03:11:52;;;;;;;;;;;9.90;99.90;;;;;;5091528;28;19924;-76
2023/06/04 03:14:18;;;;;;;;;;;9.90;99.90;;;;;;5075044;28;20023;-76
2023/06/04 03:16:44;;;;;;;;;;;9.90;99.90;;;;;;5091894;28;19954;-76
2023/06/04 03:19:11;;;;;;;;;;;9.90;99.90;;;;;;5095882;28;19931;-76
2023/06/04 03:21:39;;;;;;;;;;;9.90;99.90;;;;;;5060089;28;19974;-76
2023/06/04 03:24:05;;;;;;;;;;;9.90;99.90;;;;;;5056020;28;19924;-76
2023/06/04 03:26:31;;;;;;;;;;;9.90;99.90;;;;;;5076329;28;19931;-76
2023/06/04 03:28:57;;;;;;;;;;;9.90;99.90;;;;;;5113549;27;19928;-76
2023/06/04 03:31:22;;;;;;;;;;;9.90;99.90;;;;;;5073639;28;20073;-76
2023/06/04 03:33:48;;;;;;;;;;;9.90;99.90;;;;;;5076133;28;19929;-76
2023/06/04 03:36:13;;;;;;;;;;;9.90;99.90;;;;;;5075223;28;19935;-76
2023/06/04 03:38:39;;;;;;;;;;;9.90;99.90;;;;;;5109325;28;19927;-76
2023/06/04 03:41:04;;;;;;;;;;;9.90;99.90;;;;;;5053413;28;19923;-75
2023/06/04 03:43:30;;;;;;;;;;;9.90;99.90;;;;;;5057195;28;19928;-76
2023/06/04 03:45:56;;;;;;;;;;;9.90;99.90;;;;;;5075180;28;19958;-75
2023/06/04 03:48:21;;;;;;;;;;;10.00;99.90;;;;;;5109740;27;19931;-76
2023/06/04 03:50:47;;;;;;;;;;;10.00;99.90;;;;;;5095248;28;20029;-76
2023/06/04 03:53:12;;;;;;;;;;;10.00;99.90;;;;;;5073386;28;19935;-76
2023/06/04 03:55:38;;;;;;;;;;;10.00;99.90;;;;;;5109164;27;19928;-76
2023/06/04 03:58:04;;;;;;;;;;;9.90;99.90;;;;;;5076084;28;19950;-76
2023/06/04 04:00:30;;;;;;;;;;;10.00;99.90;;;;;;5075174;28;19924;-76
2023/06/04 04:02:56;;;;;;;;;;;10.00;99.90;;;;;;5109556;27;19924;-76
2023/06/04 04:05:21;;;;;;;;;;;10.00;99.90;;;;;;5075196;28;20384;-76
2023/06/04 04:07:47;;;;;;;;;;;10.00;99.90;;;;;;5107764;27;19975;-76
2023/06/04 04:10:13;;;;;;;;;;;10.10;99.90;;;;;;5107298;28;19936;-76
2023/06/04 04:12:39;;;;;;;;;;;10.10;99.90;;;;;;5059984;28;19931;-75
2023/06/04 04:15:05;;;;;;;;;;;10.10;99.90;;;;;;5071946;28;20013;-76
2023/06/04 04:17:30;;;;;;;;;;;10.10;99.90;;;;;;5074422;28;20518;-76
2023/06/04 04:19:56;;;;;;;;;;;10.20;99.90;;;;;;5088173;28;19932;-76
2023/06/04 04:22:21;;;;;;;;;;;10.30;99.90;;;;;;5076600;28;19932;-76
2023/06/04 04:24:47;;;;;;;;;;;10.30;99.90;;;;;;5058361;28;19963;-76
2023/06/04 04:27:12;;;;;;;;;;;10.40;99.90;;;;;;5058068;28;19928;-76
2023/06/04 04:29:38;;;;;;;;;;;10.40;99.90;;;;;;5111156;27;20024;-76
2023/06/04 04:32:10;;;;;;;;;;;10.50;99.90;;;;;;5093112;28;22351;-76
2023/06/04 04:34:37;;;;;;;;;;;10.60;99.90;;;;;;5055580;28;19970;-76
2023/06/04 04:37:03;;;;;;;;;;;10.60;99.90;;;;;;5113514;27;19975;-76
2023/06/04 04:39:29;;;;;;;;;;;10.70;99.90;;;;;;5066003;28;19935;-75
2023/06/04 04:41:55;;;;;;;;;;;10.70;99.90;;;;;;5065899;28;19931;-76
2023/06/04 04:44:20;;;;;;;;;;;10.80;99.90;;;;;;5117878;27;19928;-76
2023/06/04 04:46:47;;;;;;;;;;;10.90;99.90;;;;;;5117358;27;19931;-75
2023/06/04 04:49:13;;;;;;;;;;;11.10;99.90;;;;;;5077023;28;19932;-76
2023/06/04 04:51:39;;;;;;;;;;;11.30;99.90;;;;;;5116340;27;19974;-76
2023/06/04 04:54:04;;;;;;;;;;;11.30;99.90;;;;;;5084807;28;19928;-76
2023/06/04 04:56:36;;;;;;;;;;;11.50;99.90;;;;;;5098029;28;19928;-76
2023/06/04 04:59:02;;;;;;;;;;;11.50;99.90;;;;;;5075896;28;19928;-76
2023/06/04 05:01:28;;;;;;;;;;;11.70;99.90;;;;;;5076441;28;19932;-76
2023/06/04 05:03:53;;;;;;;;;;;11.90;99.90;;;;;;5073308;28;19932;-76
2023/06/04 05:06:19;;;;;;;;;;;12.00;99.90;;;;;;5106605;28;19928;-75
2023/06/04 05:08:45;;;;;;;;;;;12.10;99.90;;;;;;5074960;28;19924;-76
2023/06/04 05:11:10;;;;;;;;;;;12.30;99.90;;;;;;5071856;28;19994;-76
2023/06/04 05:13:36;;;;;;;;;;;12.70;99.90;;;;;;5075300;28;19924;-76
2023/06/04 05:16:06;;;;;;;;;;;13.30;99.90;;;;;;5073660;28;19935;-77
2023/06/04 05:18:32;;;;;;;;;;;13.80;99.90;;;;;;5073249;28;19924;-77
2023/06/04 05:20:59;;;;;;;;;;;14.30;99.90;;;;;;5055619;28;19998;-77
2023/06/04 05:23:26;;;;;;;;;;;14.70;99.90;;;;;;5075043;28;19923;-77
2023/06/04 05:25:51;;;;;;;;;;;15.00;99.90;;;;;;5058639;28;20027;-77
2023/06/04 05:28:18;;;;;;;;;;;15.40;99.90;;;;;;5061175;28;20394;-77
2023/06/04 05:30:43;;;;;;;;;;;15.70;99.90;;;;;;5071272;28;20499;-77
2023/06/04 05:33:17;;;;;;;;;;;15.90;99.90;;;;;;5049346;28;19934;-77
2023/06/04 05:35:52;;;;;;;;;;;16.00;99.90;;;;;;5104367;28;19987;-77
2023/06/04 05:38:25;;;;;;;;;;;16.10;99.90;;;;;;5073908;28;19928;-77
2023/06/04 05:40:52;;;;;;;;;;;16.20;99.90;;;;;;5104468;28;20000;-77
2023/06/04 05:43:17;;;;;;;;;;;16.40;99.90;;;;;;5074160;28;19924;-77
2023/06/04 05:45:43;;;;;;;;;;;16.50;99.90;;;;;;5074549;28;19931;-77
2023/06/04 05:48:09;;;;;;;;;;;16.70;99.90;;;;;;5114394;28;19960;-77
2023/06/04 05:50:34;;;;;;;;;;;16.90;99.90;;;;;;5056513;28;19928;-77
2023/06/04 05:53:00;;;;;;;;;;;17.30;99.90;;;;;;5056186;28;20356;-77
2023/06/04 05:55:25;;;;;;;;;;;17.50;99.90;;;;;;5096224;28;19924;-77
2023/06/04 05:57:51;;;;;;;;;;;17.60;99.90;;;;;;5074839;28;20328;-77
2023/06/04 06:00:17;;;;;;;;;;;17.70;99.90;;;;;;5076838;28;19932;-77
2023/06/04 06:02:43;;;;;;;;;;;17.90;99.90;;;;;;5089157;28;19954;-75
2023/06/04 06:05:09;;;;;;;;;;;18.10;99.90;;;;;;5078874;28;19969;-78
2023/06/04 06:07:35;;;;;;;;;;;18.20;99.90;;;;;;5109865;28;19988;-77
2023/06/04 06:10:01;;;;;;;;;;;18.30;99.90;;;;;;5077303;28;20394;-77
2023/06/04 06:12:26;;;;;;;;;;;18.50;99.90;;;;;;5074133;28;20087;-77
2023/06/04 06:14:52;;;;;;;;;;;18.70;99.90;;;;;;5071297;28;19936;-78
2023/06/04 06:17:17;;;;;;;;;;;19.00;99.90;;;;;;5075543;28;21079;-77
2023/06/04 06:19:43;;;;;;;;;;;19.20;99.90;;;;;;5070964;28;19929;-78
2023/06/04 06:22:08;;;;;;;;;;;19.40;99.90;;;;;;5041901;28;19947;-77
2023/06/04 06:24:34;;;;;;;;;;;19.50;99.90;;;;;;5105254;28;19924;-78
2023/06/04 06:27:00;;;;;;;;;;;19.60;99.90;;;;;;5075550;28;19936;-75
2023/06/04 06:29:25;;;;;;;;;;;19.70;99.90;;;;;;5074381;28;19929;-75
2023/06/04 06:31:51;;;;;;;;;;;19.90;99.90;;;;;;5072925;28;20019;-74
2023/06/04 06:34:16;;;;;;;;;;;20.10;99.90;;;;;;5055412;28;21209;-75
2023/06/04 06:36:42;;;;;;;;;;;20.20;99.90;;;;;;5109287;28;19924;-75
2023/06/04 06:39:08;;;;;;;;;;;20.20;99.60;;;;;;5084485;28;20470;-75
2023/06/04 06:41:34;;;;;;;;;;;20.20;99.90;;;;;;5069480;28;19977;-75
2023/06/04 06:44:00;;;;;;;;;;;20.20;99.90;;;;;;5085672;28;20340;-75
2023/06/04 06:46:25;;;;;;;;;;;20.50;99.90;;;;;;5083308;28;19935;-74
2023/06/04 06:48:51;;;;;;;;;;;20.60;99.90;;;;;;5074866;28;19925;-75
2023/06/04 06:51:17;;;;;;;;;;;20.60;98.70;;;;;;5079793;28;19949;-76
2023/06/04 06:53:43;;;;;;;;;;;20.80;99.20;;;;;;5080854;28;19935;-75
2023/06/04 06:56:08;;;;;;;;;;;20.90;97.80;;;;;;5074769;28;19932;-75
2023/06/04 06:58:34;;;;;;;;;;;21.00;97.50;;;;;;5080842;28;20023;-75
2023/06/04 07:01:00;;;;;;;;;;;20.90;96.40;;;;;;5076890;28;19925;-75
2023/06/04 07:03:26;;;;;;;;;;;21.10;96.50;;;;;;5076717;28;20478;-75
2023/06/04 07:05:52;;;;;;;;;;;21.10;96.30;;;;;;5073519;28;19974;-74
2023/06/04 07:08:17;;;;;;;;;;;21.10;95.20;;;;;;5081818;28;19946;-75
2023/06/04 07:10:43;;;;;;;;;;;21.20;93.00;;;;;;5081703;28;20461;-75
2023/06/04 07:13:09;;;;;;;;;;;21.30;94.30;;;;;;5059016;28;19947;-75
2023/06/04 07:15:35;;;;;;;;;;;21.50;92.90;;;;;;5099490;28;20000;-75
2023/06/04 07:18:00;;;;;;;;;;;21.60;93.80;;;;;;5056054;28;19931;-74
2023/06/04 07:20:26;;;;;;;;;;;21.70;92.70;;;;;;5055692;28;20287;-74
2023/06/04 07:22:51;;;;;;;;;;;21.80;93.00;;;;;;5071392;28;19928;-74
2023/06/04 07:25:17;;;;;;;;;;;21.90;90.70;;;;;;5074356;28;19980;-74
2023/06/04 07:27:42;;;;;;;;;;;21.90;92.20;;;;;;5103934;27;19936;-76
2023/06/04 07:30:09;;;;;;;;;;;21.80;89.40;;;;;;5041060;28;20427;-77
2023/06/04 07:32:34;;;;;;;;;;;21.90;90.00;;;;;;5058418;28;20029;-77
2023/06/04 07:35:01;;;;;;;;;;;21.90;90.20;;;;;;5072968;28;19924;-76
2023/06/04 07:37:26;;;;;;;;;;;22.00;90.80;;;;;;5085760;28;20410;-76
2023/06/04 07:39:52;;;;;;;;;;;22.10;90.20;;;;;;5064190;28;19924;-79
2023/06/04 07:42:18;;;;;;;;;;;22.20;89.00;;;;;;5058832;28;20242;-74
2023/06/04 07:44:43;;;;;;;;;;;22.10;86.30;;;;;;5072703;28;19979;-76
2023/06/04 07:47:09;;;;;;;;;;;22.00;88.10;;;;;;5073424;28;19928;-76
2023/06/04 07:49:34;;;;;;;;;;;22.10;87.80;;;;;;5069180;28;19932;-76
2023/06/04 07:52:00;;;;;;;;;;;22.30;87.80;;;;;;5044675;28;19936;-76
2023/06/04 07:54:26;;;;;;;;;;;22.50;86.80;;;;;;5048597;28;20901;-76
2023/06/04 07:56:55;;;;;;;;;;;22.60;86.30;;;;;;5085242;28;19951;-76
2023/06/04 07:59:24;;;;;;;;;;;22.90;84.50;;;;;;5102729;27;19924;-76
2023/06/04 08:01:51;;;;;;;;;;;22.70;76.20;;;;;;5082494;28;19924;-76
2023/06/04 08:04:16;;;;;;;;;;;22.60;80.10;;;;;;5076802;28;19925;-77
2023/06/04 08:06:44;;;;;;;;;;;22.60;81.00;;;;;;5098972;28;19931;-76
2023/06/04 08:09:11;;;;;;;;;;;22.50;82.60;;;;;;5080045;28;20024;-77
2023/06/04 08:11:37;;;;;;;;;;;22.70;81.70;;;;;;5060061;28;19935;-76
2023/06/04 08:14:02;;;;;;;;;;;22.80;81.70;;;;;;5083058;28;19924;-74
2023/06/04 08:16:28;;;;;;;;;;;22.80;81.50;;;;;;5074310;28;19932;-72
2023/06/04 08:18:54;;;;;;;;;;;23.00;76.90;;;;;;5071785;28;19932;-73
2023/06/04 08:21:26;;;;;;;;;;;22.90;75.90;;;;;;5057349;28;20402;-73
2023/06/04 08:23:51;;;;;;;;;;;22.60;76.10;;;;;;5058627;28;19928;-74
2023/06/04 08:26:17;;;;;;;;;;;22.70;76.60;;;;;;5056343;28;20016;-74
2023/06/04 08:28:43;;;;;;;;;;;22.80;79.70;;;;;;5074406;28;19936;-74
2023/06/04 08:31:08;;;;;;;;;;;22.90;76.90;;;;;;5077083;28;19937;-74
2023/06/04 08:33:34;;;;;;;;;;;23.00;77.30;;;;;;5075836;28;19933;-73
2023/06/04 08:35:59;;;;;;;;;;;23.20;75.60;;;;;;5063612;28;19991;-74
2023/06/04 08:38:25;;;;;;;;;;;23.20;76.60;;;;;;5050491;28;20356;-74
2023/06/04 08:40:52;;;;;;;;;;;23.30;70.70;;;;;;5078326;28;19992;-74
2023/06/04 08:43:18;;;;;;;;;;;23.20;72.00;;;;;;5075985;28;19983;-73
2023/06/04 08:45:47;;;;;;;;;;;23.00;67.70;;;;;;5068198;28;19928;-75
2023/06/04 08:48:13;;;;;;;;;;;22.90;72.10;;;;;;5080405;28;20050;-75
2023/06/04 08:50:40;;;;;;;;;;;23.00;75.30;;;;;;5077453;28;19973;-75
2023/06/04 08:53:06;;;;;;;;;;;23.10;70.50;;;;;;5070641;28;19973;-75
2023/06/04 08:55:32;;;;;;;;;;;23.30;70.70;;;;;;5058838;28;19931;-74
2023/06/04 08:57:57;;;;;;;;;;;23.20;70.40;;;;;;5082064;28;19928;-74
2023/06/04 09:00:23;;;;;;;;;;;23.30;72.10;;;;;;5056607;28;19935;-75
2023/06/04 09:02:49;;;;;;;;;;;23.30;68.20;;;;;;5075894;28;19925;-74
2023/06/04 09:05:22;;;;;;;;;;;23.20;65.30;;;;;;5078115;28;19934;-74
2023/06/04 09:07:51;;;;;;;;;;;23.00;68.00;;;;;;5080203;28;19936;-74
2023/06/04 09:10:18;;;;;;;;;;;23.10;70.30;;;;;;5066581;28;19970;-75
2023/06/04 09:12:46;;;;;;;;;;;23.20;71.60;;;;;;5083279;28;19994;-76
2023/06/04 09:15:12;;;;;;;;;;;23.50;69.30;;;;;;5075148;28;19925;-75
2023/06/04 09:17:38;;;;;;;;;;;23.60;67.10;;;;;;5065787;28;20065;-74
2023/06/04 09:20:05;;;;;;;;;;;23.80;68.80;;;;;;5070821;28;20319;-75
2023/06/04 09:22:34;;;;;;;;;;;23.80;66.50;;;;;;5072102;28;19929;-75
2023/06/04 09:25:02;;;;;;;;;;;23.80;65.30;;;;;;5059210;28;19984;-74
2023/06/04 09:27:36;;;;;;;;;;;23.90;63.50;;;;;;5065622;28;19924;-74
2023/06/04 09:30:02;;;;;;;;;;;23.90;64.80;;;;;;5103402;28;19924;-74
2023/06/04 09:32:29;;;;;;;;;;;23.90;64.80;;;;;;5115034;27;19946;-74
2023/06/04 09:35:13;;;;;;;;;;;24.00;63.90;;;;;;5085785;28;19938;-74
2023/06/04 09:37:39;;;;;;;;;;;24.00;66.70;;;;;;5066702;28;19932;-74
2023/06/04 09:40:06;;;;;;;;;;;23.80;63.10;;;;;;5075081;28;20388;-74
2023/06/04 09:42:57;;;;;;;;;;;23.80;61.40;;;;;;5082452;28;20968;-74
2023/06/04 09:45:29;;;;;;;;;;;23.70;62.40;;;;;;5110846;27;20395;-75
2023/06/04 09:47:55;;;;;;;;;;;23.70;65.10;;;;;;5064567;28;19925;-74
2023/06/04 09:50:28;;;;;;;;;;;23.80;62.90;;;;;;5104963;28;19963;-74
2023/06/04 09:52:54;;;;;;;;;;;23.90;62.90;;;;;;5095352;27;20001;-75
2023/06/04 09:55:21;;;;;;;;;;;23.90;63.20;;;;;;5075662;28;20306;-73
2023/06/04 09:57:49;;;;;;;;;;;23.90;59.90;;;;;;5075809;28;19928;-74
2023/06/04 10:00:16;;;;;;;;;;;23.70;61.30;;;;;;5116448;27;19928;-74
2023/06/04 10:02:42;;;;;;;;;;;23.80;63.60;;;;;;5066111;28;19939;-74
2023/06/04 10:05:09;;;;;;;;;;;23.90;62.90;;;;;;5065068;28;19931;-74
2023/06/04 10:07:36;;;;;;;;;;;24.00;62.20;;;;;;5078556;28;19924;-74
2023/06/04 10:10:01;;;;;;;;;;;24.30;62.70;;;;;;5087029;28;19943;-74
2023/06/04 10:12:30;;;;;;;;;;;24.50;63.40;;;;;;5057680;28;19924;-74
2023/06/04 10:15:01;;;;;;;;;;;24.60;61.00;;;;;;5081070;28;19963;-75
2023/06/04 10:17:28;;;;;;;;;;;24.80;60.30;;;;;;5074748;28;19924;-74
2023/06/04 10:19:54;;;;;;;;;;;24.90;58.50;;;;;;5079520;28;20013;-75
2023/06/04 10:22:23;;;;;;;;;;;24.90;58.40;;;;;;5081724;28;19925;-75
2023/06/04 10:24:49;;;;;;;;;;;25.00;60.90;;;;;;5087471;28;20434;-74
2023/06/04 10:27:17;;;;;;;;;;;25.10;59.20;;;;;;5085268;28;19924;-75
2023/06/04 10:29:42;;;;;;;;;;;25.00;59.50;;;;;;5066500;28;20402;-75
2023/06/04 10:32:08;;;;;;;;;;;25.00;57.30;;;;;;5077223;28;19929;-74
2023/06/04 10:34:34;;;;;;;;;;;24.70;56.60;;;;;;5066498;28;19936;-74
2023/06/04 10:36:59;;;;;;;;;;;24.70;60.10;;;;;;5080159;28;19964;-74
2023/06/04 10:39:26;;;;;;;;;;;24.70;58.20;;;;;;5085762;28;20383;-74
2023/06/04 10:42:02;;;;;;;;;;;24.70;56.30;;;;;;5079041;28;19924;-76
2023/06/04 10:44:29;;;;;;;;;;;24.80;57.20;;;;;;5080617;28;19946;-73
2023/06/04 10:46:54;;;;;;;;;;;24.90;57.50;;;;;;5078283;28;19929;-74
2023/06/04 10:49:27;;;;;;;;;;;24.90;56.50;;;;;;5115034;27;19932;-75
2023/06/04 10:51:55;;;;;;;;;;;25.00;56.00;;;;;;5060683;28;19936;-73
2023/06/04 10:54:25;;;;;;;;;;;25.00;54.30;;;;;;5076729;28;19928;-74
2023/06/04 10:56:51;;;;;;;;;;;25.00;56.10;;;;;;5060883;28;19929;-74
2023/06/04 10:59:17;;;;;;;;;;;25.20;55.50;;;;;;5066412;28;19936;-73
2023/06/04 11:01:44;;;;;;;;;;;25.20;56.40;;;;;;5056669;28;19928;-75
2023/06/04 11:04:22;;;;;;;;;;;25.40;59.00;;;;;;5071874;28;19925;-73
2023/06/04 11:06:48;;;;;;;;;;;25.40;54.30;;;;;;5092487;28;19925;-74
2023/06/04 11:09:18;;;;;;;;;;;25.30;55.30;;;;;;5078045;28;20662;-73
2023/06/04 11:11:44;;;;;;;;;;;24.90;51.30;;;;;;5095306;28;19996;-73
2023/06/04 11:14:13;;;;;;;;;;;24.70;54.90;;;;;;5080346;28;19932;-73
2023/06/04 11:16:38;;;;;;;;;;;24.70;56.40;;;;;;5077762;28;19924;-73
2023/06/04 11:19:04;;;;;;;;;;;24.80;55.80;;;;;;5081405;28;19998;-72
2023/06/04 11:21:30;;;;;;;;;;;25.00;54.10;;;;;;5092883;28;20433;-74
2023/06/04 11:23:59;;;;;;;;;;;25.10;56.00;;;;;;5074864;28;19924;-72
2023/06/04 11:26:34;;;;;;;;;;;25.00;55.20;;;;;;5080249;28;19982;-73
2023/06/04 11:29:00;;;;;;;;;;;25.00;56.40;;;;;;5073126;28;21272;-71
2023/06/04 11:31:26;;;;;;;;;;;25.00;55.50;;;;;;5074867;28;19935;-72
2023/06/04 11:33:52;;;;;;;;;;;25.10;54.70;;;;;;5077223;28;19924;-72
2023/06/04 11:36:25;;;;;;;;;;;25.10;56.90;;;;;;5073886;28;19925;-73
2023/06/04 11:38:58;;;;;;;;;;;25.20;54.20;;;;;;5061788;28;19924;-73
2023/06/04 11:41:26;;;;;;;;;;;25.10;54.20;;;;;;5073274;28;19937;-73
2023/06/04 11:43:52;;;;;;;;;;;25.00;57.10;;;;;;5075735;28;19924;-72
2023/06/04 11:46:18;;;;;;;;;;;25.10;57.60;;;;;;5073208;28;19970;-73
2023/06/04 11:48:44;;;;;;;;;;;25.00;55.40;;;;;;5074425;28;19928;-72
2023/06/04 11:51:10;;;;;;;;;;;25.00;54.50;;;;;;5075531;28;19924;-72
2023/06/04 11:53:36;;;;;;;;;;;25.00;56.40;;;;;;5107320;28;19924;-71
2023/06/04 11:56:02;;;;;;;;;;;25.00;53.60;;;;;;5108174;28;19929;-70
2023/06/04 11:58:28;;;;;;;;;;;24.90;55.30;;;;;;5072020;28;19951;-72
2023/06/04 12:00:55;;;;;;;;;;;24.80;56.40;;;;;;5076365;28;20086;-72
2023/06/04 12:03:30;;;;;;;;;;;24.80;54.50;;;;;;5070785;28;20332;-71
2023/06/04 12:05:55;;;;;;;;;;;24.70;53.90;;;;;;5105338;28;19935;-72
2023/06/04 12:08:21;;;;;;;;;;;24.90;55.20;;;;;;5071552;28;19925;-72
2023/06/04 12:10:47;;;;;;;;;;;25.00;52.30;;;;;;5068789;28;20041;-72
2023/06/04 12:13:12;;;;;;;;;;;25.00;53.70;;;;;;5089846;28;19975;-71
2023/06/04 12:15:38;;;;;;;;;;;25.00;53.20;;;;;;5080230;28;20286;-71
2023/06/04 12:18:06;;;;;;;;;;;25.10;55.30;;;;;;5060021;28;19955;-73
2023/06/04 12:20:39;;;;;;;;;;;25.10;53.50;;;;;;5059702;28;19939;-72
2023/06/04 12:23:05;;;;;;;;;;;25.00;53.10;;;;;;5076836;28;19960;-73
2023/06/04 12:25:32;;;;;;;;;;;24.90;51.50;;;;;;5098799;28;19999;-73
2023/06/04 12:27:57;;;;;;;;;;;24.70;52.20;;;;;;5071015;28;20266;-73
2023/06/04 12:30:23;;;;;;;;;;;24.60;54.40;;;;;;5065418;28;19924;-73
2023/06/04 12:32:50;;;;;;;;;;;24.80;54.10;;;;;;5081977;28;19933;-72
2023/06/04 12:35:16;;;;;;;;;;;24.70;52.20;;;;;;5074927;28;19960;-73
2023/06/04 12:37:41;;;;;;;;;;;24.70;53.10;;;;;;5074869;28;19925;-72
2023/06/04 12:40:08;;;;;;;;;;;24.70;52.90;;;;;;5058489;28;19925;-74
2023/06/04 12:42:34;;;;;;;;;;;24.70;54.70;;;;;;5098801;28;20294;-72
2023/06/04 12:45:00;;;;;;;;;;;24.80;53.50;;;;;;5077797;28;20018;-74
2023/06/04 12:47:25;;;;;;;;;;;24.90;53.90;;;;;;5074779;28;19928;-73
2023/06/04 12:49:52;;;;;;;;;;;25.00;54.10;;;;;;5111500;27;19924;-75
2023/06/04 12:52:17;;;;;;;;;;;25.00;53.70;;;;;;5076367;28;19928;-73
2023/06/04 12:54:43;;;;;;;;;;;25.00;51.70;;;;;;5083523;28;19936;-72
2023/06/04 12:57:09;;;;;;;;;;;25.00;51.40;;;;;;5074142;28;20016;-73
2023/06/04 12:59:34;;;;;;;;;;;24.90;52.40;;;;;;5076468;28;20222;-73
2023/06/04 13:02:00;;;;;;;;;;;24.80;52.30;;;;;;5070596;28;20364;-74
2023/06/04 13:04:25;;;;;;;;;;;24.70;52.70;;;;;;5063749;28;19925;-74
2023/06/04 13:06:58;;;;;;;;;;;24.70;52.00;;;;;;5102774;28;19929;-74
2023/06/04 13:09:24;;;;;;;;;;;24.70;51.50;;;;;;5095890;28;19935;-74
2023/06/04 13:11:50;;;;;;;;;;;24.70;52.60;;;;;;5096642;28;19956;-73
2023/06/04 13:14:16;;;;;;;;;;;24.90;51.90;;;;;;5081044;28;19930;-75
2023/06/04 13:16:41;;;;;;;;;;;24.80;53.20;;;;;;5055567;28;19925;-73
2023/06/04 13:19:07;;;;;;;;;;;24.70;51.50;;;;;;5075270;28;20363;-73
2023/06/04 13:21:33;;;;;;;;;;;24.70;52.60;;;;;;5058942;28;19924;-73
2023/06/04 13:23:58;;;;;;;;;;;24.80;52.80;;;;;;5063728;28;19951;-74
2023/06/04 13:26:25;;;;;;;;;;;24.90;52.30;;;;;;5112015;28;19959;-72
2023/06/04 13:28:51;;;;;;;;;;;24.70;52.80;;;;;;5069581;28;19928;-73
2023/06/04 13:31:16;;;;;;;;;;;24.80;52.60;;;;;;5069809;28;19936;-72
2023/06/04 13:33:42;;;;;;;;;;;24.90;53.70;;;;;;5070227;28;19924;-72
2023/06/04 13:36:08;;;;;;;;;;;25.00;51.10;;;;;;5083755;28;20371;-82
2023/06/04 13:38:33;;;;;;;;;;;25.00;52.30;;;;;;5060683;28;19936;-83
2023/06/04 13:40:59;;;;;;;;;;;25.10;53.60;;;;;;5056044;28;20592;-76
2023/06/04 13:43:25;;;;;;;;;;;25.00;51.70;;;;;;5074482;28;19936;-77
2023/06/04 13:45:50;;;;;;;;;;;24.80;51.00;;;;;;5088621;28;20018;-76
2023/06/04 13:48:16;;;;;;;;;;;24.70;52.60;;;;;;5069922;28;20031;-74
2023/06/04 13:50:42;;;;;;;;;;;24.70;53.60;;;;;;5080316;28;19924;-76
2023/06/04 13:53:08;;;;;;;;;;;24.70;54.20;;;;;;5036269;28;20472;-78
2023/06/04 13:55:33;;;;;;;;;;;24.70;53.80;;;;;;5081642;28;19924;-79
2023/06/04 13:57:59;;;;;;;;;;;24.60;52.70;;;;;;5066430;28;19971;-80
2023/06/04 14:00:25;;;;;;;;;;;24.60;54.50;;;;;;5064348;28;20017;-78
2023/06/04 14:02:50;;;;;;;;;;;24.60;54.10;;;;;;5065981;28;19924;-79
2023/06/04 14:05:16;;;;;;;;;;;24.50;55.20;;;;;;5072118;28;19924;-79
2023/06/04 14:07:42;;;;;;;;;;;24.30;55.80;;;;;;5074026;28;19931;-80
2023/06/04 14:10:08;;;;;;;;;;;24.20;55.70;;;;;;5078899;28;20394;-80
2023/06/04 14:12:35;;;;;;;;;;;24.20;56.80;;;;;;5066950;28;20023;-80
2023/06/04 14:15:01;;;;;;;;;;;24.20;56.20;;;;;;5095757;28;20464;-81